createdAt,value
2022-09-28T03:54:32.262Z,85.21
2022-09-28T03:57:56.162Z,85.30
2022-09-28T04:01:25.627Z,85.16
2022-09-28T04:04:49.988Z,85.29
2022-09-28T04:08:13.281Z,85.42
2022-09-28T04:11:53.181Z,85.48
2022-09-28T04:15:21.963Z,85.61
2022-09-28T04:18:47.266Z,85.68
2022-09-28T04:22:37.626Z,85.74
2022-09-28T04:26:01.301Z,85.87
2022-09-28T04:29:24.936Z,86.10
2022-09-28T04:32:54.273Z,86.09
2022-09-28T04:36:19.117Z,86.18
2022-09-28T04:39:47.570Z,86.07
2022-09-28T04:43:14.008Z,86.20
2022-09-28T04:46:38.012Z,86.23
2022-09-28T04:50:21.662Z,86.37
2022-09-28T04:54:10.412Z,86.31
2022-09-28T04:57:35.718Z,86.37
2022-09-28T05:01:02.160Z,86.23
2022-09-28T05:04:53.198Z,86.52
2022-09-28T05:08:56.726Z,86.82
2022-09-28T05:12:20.259Z,87.00
2022-09-28T05:15:46.284Z,87.22
2022-09-28T05:19:11.892Z,87.48
2022-09-28T05:22:36.518Z,87.54
2022-09-28T05:26:02.417Z,87.55
2022-09-28T05:29:31.351Z,87.50
2022-09-28T05:33:14.315Z,87.15
2022-09-28T05:36:42.300Z,87.60
2022-09-28T05:40:07.286Z,87.38
2022-09-28T05:43:31.497Z,87.64
2022-09-28T05:46:55.245Z,87.77
2022-09-28T05:50:19.411Z,87.47
2022-09-28T05:53:44.687Z,87.61
2022-09-28T05:57:08.407Z,87.46
2022-09-28T06:00:33.238Z,87.34
2022-09-28T06:03:57.965Z,87.76
2022-09-28T06:07:22.803Z,88.06
2022-09-28T06:10:46.347Z,88.14
2022-09-28T06:14:13.004Z,87.87
2022-09-28T06:17:37.689Z,87.05
2022-09-28T06:21:19.369Z,85.88
2022-09-28T06:24:43.635Z,85.58
2022-09-28T06:28:11.203Z,84.36
2022-09-28T06:31:35.773Z,83.54
2022-09-28T06:34:59.197Z,82.49
2022-09-28T06:38:23.192Z,81.30
2022-09-28T06:41:46.576Z,80.61
2022-09-28T06:45:15.087Z,79.89
2022-09-28T06:48:57.098Z,79.77
2022-09-28T06:52:41.306Z,78.53
2022-09-28T06:56:33.080Z,77.37
2022-09-28T06:59:57.071Z,76.97
2022-09-28T07:03:22.475Z,75.95
2022-09-28T07:06:58.590Z,75.60
2022-09-28T07:10:52.450Z,75.48
2022-09-28T07:14:47.480Z,74.62
2022-09-28T07:18:12.380Z,74.00
2022-09-28T07:21:38.622Z,74.19
2022-09-28T07:25:02.027Z,73.43
2022-09-28T07:29:04.296Z,73.93
2022-09-28T07:32:51.721Z,74.16
2022-09-28T07:36:23.113Z,72.26
2022-09-28T07:40:06.371Z,72.59
2022-09-28T07:43:32.866Z,71.98
2022-09-28T07:46:56.152Z,71.52
2022-09-28T07:50:27.775Z,70.43
2022-09-28T07:54:00.265Z,70.65
2022-09-28T07:57:42.654Z,70.42
2022-09-28T08:01:32.435Z,69.48
2022-09-28T08:04:57.697Z,69.94
2022-09-28T08:08:21.457Z,69.59
2022-09-28T08:11:45.490Z,70.41
2022-09-28T08:15:36.287Z,70.62
2022-09-28T08:19:12.672Z,69.61
2022-09-28T08:22:36.668Z,70.11
2022-09-28T08:26:00.087Z,70.07
2022-09-28T08:29:23.665Z,69.90
2022-09-28T08:32:49.736Z,69.71
2022-09-28T08:36:31.741Z,69.42
2022-09-28T08:39:58.140Z,68.93
2022-09-28T08:44:01.763Z,69.32
2022-09-28T08:48:07.077Z,69.04
2022-09-28T08:51:45.902Z,69.32
2022-09-28T08:55:20.515Z,69.34
2022-09-28T08:58:56.928Z,69.09
2022-09-28T09:02:26.920Z,68.37
2022-09-28T09:06:08.502Z,67.84
2022-09-28T09:10:03.253Z,68.32
2022-09-28T09:13:48.377Z,68.52
2022-09-28T09:17:22.900Z,68.54
2022-09-28T09:21:19.505Z,68.18
2022-09-28T09:24:50.280Z,68.31
2022-09-28T09:28:48.645Z,68.00
2022-09-28T09:32:30.128Z,67.25
2022-09-28T09:36:19.092Z,67.27
2022-09-28T09:40:17.727Z,67.03
2022-09-28T09:44:16.223Z,66.99
